Time;durP1;ratioP1;P1;durP2;ratioP2;P2;SDS_P1;SDS_P2;PMS_P1;PMS_P2;Temp;Humidity;BMP_temperature;BMP_pressure;BME280_temperature;BME280_humidity;BME280_pressure;Samples;Min_cycle;Max_cycle;Signal;HPM_P1;HPM_P2
2021/04/27 00:00:41;;;;;;;16.45;11.75;;;13.10;99.90;;;;;;5002832;28;20037;-75
2021/04/27 00:03:07;;;;;;;14.80;10.05;;;12.80;99.90;;;;;;5013347;28;20022;-74
2021/04/27 00:05:33;;;;;;;16.60;10.82;;;12.70;99.90;;;;;;5012325;28;20062;-75
2021/04/27 00:07:59;;;;;;;12.85;10.50;;;12.70;99.90;;;;;;5008726;28;20026;-75
2021/04/27 00:10:26;;;;;;;14.65;10.48;;;12.70;99.90;;;;;;5011754;28;20014;-75
2021/04/27 00:12:52;;;;;;;16.98;10.38;;;12.70;99.90;;;;;;4986632;28;20113;-75
2021/04/27 00:15:25;;;;;;;15.50;10.57;;;12.80;99.90;;;;;;5012773;28;20105;-75
2021/04/27 00:17:52;;;;;;;16.50;10.90;;;12.90;99.90;;;;;;5009939;28;20022;-74
2021/04/27 00:20:23;;;;;;;13.27;9.45;;;13.00;99.90;;;;;;5006734;28;20033;-75
2021/04/27 00:22:50;;;;;;;16.13;10.48;;;13.00;99.90;;;;;;5009639;28;20488;-75
2021/04/27 00:25:16;;;;;;;11.85;10.55;;;13.00;99.90;;;;;;5007147;28;20041;-75
2021/04/27 00:27:44;;;;;;;19.02;11.68;;;12.90;99.90;;;;;;4991444;28;20026;-76
2021/04/27 00:30:11;;;;;;;16.58;11.48;;;12.90;99.90;;;;;;5013001;28;20037;-74
2021/04/27 00:32:36;;;;;;;12.10;10.73;;;12.90;99.90;;;;;;5011017;28;20022;-74
2021/04/27 00:35:02;;;;;;;13.52;11.60;;;12.90;99.90;;;;;;5009606;28;20095;-75
2021/04/27 00:37:29;;;;;;;16.73;11.57;;;12.70;99.90;;;;;;5011163;28;20027;-74
2021/04/27 00:39:55;;;;;;;14.95;11.80;;;12.60;99.90;;;;;;5005106;28;20022;-74
2021/04/27 00:42:31;;;;;;;13.60;10.75;;;12.60;99.90;;;;;;5006954;28;20407;-75
2021/04/27 00:44:57;;;;;;;13.57;10.65;;;12.70;99.90;;;;;;5009407;28;20419;-75
2021/04/27 00:47:24;;;;;;;13.40;11.70;;;12.80;99.90;;;;;;5004514;28;20408;-77
2021/04/27 00:49:52;;;;;;;12.13;10.15;;;12.80;99.90;;;;;;4988427;28;20026;-75
2021/04/27 00:52:17;;;;;;;16.20;11.80;;;12.80;99.90;;;;;;5010335;28;20037;-76
2021/04/27 00:54:43;;;;;;;16.80;11.65;;;12.70;99.90;;;;;;5011831;28;20014;-74
2021/04/27 00:57:09;;;;;;;15.80;12.02;;;12.70;99.90;;;;;;5007757;28;20022;-74
2021/04/27 00:59:35;;;;;;;17.13;11.98;;;12.70;99.90;;;;;;5004055;28;20388;-75
2021/04/27 01:02:01;;;;;;;12.50;11.02;;;12.80;99.90;;;;;;5008995;28;20033;-75
2021/04/27 01:04:27;;;;;;;22.73;11.48;;;12.80;99.90;;;;;;5001024;28;20034;-73
2021/04/27 01:06:53;;;;;;;14.05;11.48;;;12.70;99.90;;;;;;5010036;28;20041;-75
2021/04/27 01:09:35;;;;;;;14.68;10.23;;;12.70;99.90;;;;;;5004476;28;20076;-75
2021/04/27 01:12:10;;;;;;;14.43;11.75;;;12.80;99.90;;;;;;5011168;28;20117;-74
2021/04/27 01:14:40;;;;;;;15.88;11.85;;;12.70;99.90;;;;;;5009489;28;20492;-75
2021/04/27 01:17:08;;;;;;;14.98;12.27;;;12.60;99.90;;;;;;4991198;28;20042;-75
2021/04/27 01:19:54;;;;;;;13.27;11.98;;;12.60;99.90;;;;;;4991316;28;20105;-74
2021/04/27 01:22:27;;;;;;;15.82;12.50;;;12.50;99.90;;;;;;5009778;28;20369;-75
2021/04/27 01:24:56;;;;;;;13.30;11.95;;;12.50;99.90;;;;;;5009214;28;20034;-74
2021/04/27 01:27:24;;;;;;;21.77;12.52;;;12.50;99.90;;;;;;4991974;28;20032;-75
2021/04/27 01:29:50;;;;;;;14.68;12.20;;;12.50;99.90;;;;;;5009332;28;20033;-75
2021/04/27 01:32:16;;;;;;;18.45;12.95;;;12.60;99.90;;;;;;5011895;28;20088;-75
2021/04/27 01:34:45;;;;;;;15.55;11.63;;;12.50;99.90;;;;;;4993615;28;20049;-75
2021/04/27 01:37:13;;;;;;;17.17;13.63;;;12.50;99.90;;;;;;5008521;28;20041;-74
2021/04/27 01:39:40;;;;;;;16.27;13.23;;;12.40;99.90;;;;;;4990151;28;20023;-75
2021/04/27 01:42:09;;;;;;;20.05;13.57;;;12.40;99.90;;;;;;5004358;28;20029;-74
2021/04/27 01:44:38;;;;;;;15.35;13.75;;;12.40;99.90;;;;;;5008929;28;20029;-75
2021/04/27 01:47:06;;;;;;;16.70;14.02;;;12.50;99.90;;;;;;5004558;28;20369;-76
2021/04/27 01:49:32;;;;;;;14.38;12.88;;;12.50;99.90;;;;;;4988538;28;20036;-74
2021/04/27 01:51:59;;;;;;;15.65;14.05;;;12.50;99.90;;;;;;5010728;28;20108;-74
2021/04/27 01:54:28;;;;;;;20.35;14.75;;;12.50;99.90;;;;;;4987857;28;20040;-73
2021/04/27 01:56:54;;;;;;;17.75;13.30;;;12.50;99.90;;;;;;5010030;28;20088;-76
2021/04/27 01:59:20;;;;;;;21.85;13.05;;;12.50;99.90;;;;;;4998104;28;20033;-77
2021/04/27 02:01:47;;;;;;;18.08;14.40;;;12.30;99.90;;;;;;5009971;28;20108;-75
2021/04/27 02:04:20;;;;;;;18.17;15.45;;;12.20;99.90;;;;;;5006046;28;20036;-74
2021/04/27 02:06:46;;;;;;;17.80;14.50;;;12.00;99.90;;;;;;5011808;28;20052;-75
2021/04/27 02:09:15;;;;;;;18.75;15.38;;;11.90;99.90;;;;;;5009667;28;20034;-75
2021/04/27 02:11:44;;;;;;;18.23;14.88;;;11.80;99.90;;;;;;4993754;28;20022;-75
2021/04/27 02:14:12;;;;;;;17.40;15.15;;;11.70;99.90;;;;;;5011006;28;20052;-75
2021/04/27 02:17:01;;;;;;;18.27;16.33;;;11.80;99.90;;;;;;5005341;28;20014;-77
2021/04/27 02:19:31;;;;;;;16.90;15.10;;;11.80;99.90;;;;;;5004673;28;20061;-76
2021/04/27 02:22:04;;;;;;;16.35;14.70;;;12.00;99.90;;;;;;5010043;28;20040;-77
2021/04/27 02:24:30;;;;;;;16.13;14.50;;;12.20;99.90;;;;;;5006424;28;20026;-75
2021/04/27 02:26:57;;;;;;;23.50;15.20;;;12.20;99.90;;;;;;4987804;28;20036;-75
2021/04/27 02:29:23;;;;;;;20.10;14.50;;;12.20;99.90;;;;;;4982022;28;20080;-75
2021/04/27 02:31:50;;;;;;;18.27;14.57;;;12.30;99.90;;;;;;5010143;28;20060;-74
2021/04/27 02:34:21;;;;;;;17.80;15.15;;;12.40;99.90;;;;;;5006285;28;20030;-76
2021/04/27 02:36:48;;;;;;;19.10;15.02;;;12.40;99.90;;;;;;5007919;28;20061;-75
2021/04/27 02:39:14;;;;;;;17.48;14.70;;;12.30;99.90;;;;;;5009459;28;20468;-75
2021/04/27 02:41:41;;;;;;;18.23;15.43;;;12.20;99.90;;;;;;4999268;28;20036;-75
2021/04/27 02:44:08;;;;;;;19.35;16.83;;;12.20;99.90;;;;;;5002784;28;20033;-75
2021/04/27 02:46:35;;;;;;;17.92;15.80;;;12.20;99.90;;;;;;5007552;28;20554;-76
2021/04/27 02:49:01;;;;;;;20.17;17.48;;;12.10;99.90;;;;;;5001881;28;20064;-76
2021/04/27 02:51:27;;;;;;;17.77;15.68;;;12.00;99.90;;;;;;5000346;28;20026;-76
2021/04/27 02:53:53;;;;;;;17.00;15.25;;;11.90;99.90;;;;;;4991074;28;20037;-75
2021/04/27 02:56:19;;;;;;;18.27;16.40;;;12.00;99.90;;;;;;4990968;28;20029;-75
2021/04/27 02:58:44;;;;;;;21.75;14.50;;;12.00;99.90;;;;;;5002050;28;20492;-76
2021/04/27 03:01:10;;;;;;;22.88;16.67;;;12.20;99.90;;;;;;5004143;28;20025;-75
2021/04/27 03:03:39;;;;;;;16.73;15.10;;;12.10;99.90;;;;;;5006715;28;20088;-74
2021/04/27 03:06:05;;;;;;;21.17;14.35;;;12.00;99.90;;;;;;4992043;28;20045;-74
2021/04/27 03:08:30;;;;;;;19.38;14.77;;;11.90;99.90;;;;;;5008193;28;20404;-75
2021/04/27 03:10:56;;;;;;;17.83;15.25;;;11.90;99.90;;;;;;4991890;28;20052;-74
2021/04/27 03:13:22;;;;;;;23.35;16.00;;;11.90;99.90;;;;;;5009458;28;20026;-75
2021/04/27 03:15:48;;;;;;;22.52;16.30;;;11.80;99.90;;;;;;5003303;28;20498;-75
2021/04/27 03:18:14;;;;;;;16.70;14.70;;;11.90;99.90;;;;;;5009376;28;20032;-75
2021/04/27 03:20:42;;;;;;;20.60;16.30;;;12.00;99.90;;;;;;4992133;28;20041;-76
2021/04/27 03:23:11;;;;;;;17.55;15.13;;;12.10;99.90;;;;;;5012880;28;20142;-76
2021/04/27 03:25:38;;;;;;;15.73;13.85;;;12.20;99.90;;;;;;5009900;28;20108;-76
2021/04/27 03:28:08;;;;;;;18.25;14.70;;;12.30;99.90;;;;;;5003586;28;20026;-75
2021/04/27 03:30:35;;;;;;;23.13;15.88;;;12.40;99.90;;;;;;5010330;28;20739;-75
2021/04/27 03:33:01;;;;;;;14.32;12.90;;;12.40;99.90;;;;;;5011730;28;20065;-76
2021/04/27 03:35:27;;;;;;;17.25;13.80;;;12.50;99.90;;;;;;5012223;28;20022;-76
2021/04/27 03:37:53;;;;;;;16.08;14.43;;;12.50;99.90;;;;;;5014727;28;20461;-75
2021/04/27 03:40:19;;;;;;;16.58;13.45;;;12.60;99.90;;;;;;4998415;28;20550;-76
2021/04/27 03:42:45;;;;;;;18.77;13.45;;;12.70;99.90;;;;;;5009988;28;20034;-76
2021/04/27 03:45:16;;;;;;;15.98;14.32;;;12.80;99.90;;;;;;5011333;28;20026;-76
2021/04/27 03:47:43;;;;;;;16.95;13.35;;;12.70;99.90;;;;;;4992729;28;20037;-77
2021/04/27 03:50:13;;;;;;;17.48;13.02;;;12.70;99.90;;;;;;5008833;28;20022;-75
2021/04/27 03:52:39;;;;;;;19.65;14.75;;;12.70;99.90;;;;;;5009967;28;20046;-75
2021/04/27 03:55:06;;;;;;;16.98;14.93;;;12.60;99.90;;;;;;5011173;28;20061;-76
2021/04/27 03:57:31;;;;;;;16.58;14.20;;;12.50;99.90;;;;;;5012916;28;20025;-76
2021/04/27 03:59:57;;;;;;;19.60;16.27;;;12.30;99.90;;;;;;5009016;28;20026;-76
2021/04/27 04:02:23;;;;;;;18.48;15.45;;;12.30;99.90;;;;;;5007557;28;20369;-75
2021/04/27 04:04:49;;;;;;;22.90;15.82;;;12.40;99.90;;;;;;5012597;28;20022;-75
2021/04/27 04:07:15;;;;;;;18.90;15.68;;;12.30;99.90;;;;;;4994499;28;20116;-75
2021/04/27 04:09:41;;;;;;;16.95;15.10;;;12.40;99.90;;;;;;5006681;28;20053;-75
2021/04/27 04:12:07;;;;;;;17.13;14.70;;;12.50;99.90;;;;;;5001162;28;20025;-76
2021/04/27 04:14:34;;;;;;;17.05;15.30;;;12.40;99.90;;;;;;4997208;28;20101;-76
2021/04/27 04:17:00;;;;;;;21.42;16.20;;;12.50;99.90;;;;;;5010829;28;20508;-75
2021/04/27 04:19:26;;;;;;;22.15;16.63;;;12.50;99.90;;;;;;5008456;28;20057;-75
2021/04/27 04:21:52;;;;;;;19.45;16.20;;;12.50;99.90;;;;;;5010841;28;20057;-76
2021/04/27 04:24:18;;;;;;;21.15;16.05;;;12.50;99.90;;;;;;5010100;28;20041;-75
2021/04/27 04:26:43;;;;;;;27.42;16.58;;;12.50;99.90;;;;;;5012209;28;20510;-75
2021/04/27 04:29:09;;;;;;;18.65;15.57;;;12.40;99.90;;;;;;5010349;28;20476;-76
2021/04/27 04:31:35;;;;;;;20.70;16.20;;;12.30;99.90;;;;;;5003729;28;20034;-77
2021/04/27 04:34:00;;;;;;;21.52;17.38;;;12.20;99.90;;;;;;5007549;28;20374;-76
2021/04/27 04:36:26;;;;;;;20.33;15.68;;;12.20;99.90;;;;;;5012361;28;20026;-77
2021/04/27 04:38:52;;;;;;;18.67;16.75;;;12.20;99.90;;;;;;5010723;28;20157;-76
2021/04/27 04:41:18;;;;;;;20.15;17.33;;;12.20;99.90;;;;;;5012794;28;20112;-76
2021/04/27 04:43:44;;;;;;;17.55;15.50;;;12.20;99.90;;;;;;5009886;28;20025;-76
2021/04/27 04:46:09;;;;;;;18.95;16.70;;;12.20;99.90;;;;;;5006984;28;20026;-77
2021/04/27 04:48:35;;;;;;;21.67;15.25;;;12.30;99.90;;;;;;5005457;28;20092;-77
2021/04/27 04:51:01;;;;;;;22.67;16.73;;;12.40;99.90;;;;;;5010312;28;20400;-75
2021/04/27 04:53:27;;;;;;;17.98;15.82;;;12.40;99.90;;;;;;5012605;28;20041;-76
2021/04/27 04:55:53;;;;;;;19.73;15.73;;;12.30;99.90;;;;;;4989479;28;20030;-75
2021/04/27 04:58:19;;;;;;;17.02;13.57;;;12.30;99.90;;;;;;5011278;28;20037;-76
2021/04/27 05:00:45;;;;;;;18.00;14.63;;;12.40;99.90;;;;;;5012134;28;20065;-77
2021/04/27 05:03:10;;;;;;;19.48;16.02;;;12.40;99.90;;;;;;5008046;28;20025;-77
2021/04/27 05:05:36;;;;;;;25.38;16.08;;;12.30;99.90;;;;;;4995651;28;20021;-76
2021/04/27 05:08:10;;;;;;;21.45;16.17;;;12.40;99.90;;;;;;5007516;28;20568;-76
2021/04/27 05:10:36;;;;;;;24.98;16.38;;;12.30;99.90;;;;;;4990179;28;20029;-75
2021/04/27 05:13:03;;;;;;;20.35;15.55;;;12.40;99.90;;;;;;5010254;28;20053;-76
2021/04/27 05:15:28;;;;;;;20.13;15.18;;;12.40;99.90;;;;;;5012147;28;20034;-75
2021/04/27 05:17:54;;;;;;;22.50;19.40;;;12.40;99.90;;;;;;5011133;28;20033;-74
2021/04/27 05:20:22;;;;;;;19.88;16.75;;;12.70;99.90;;;;;;4985028;28;20026;-76
2021/04/27 05:22:49;;;;;;;20.00;17.25;;;12.90;99.90;;;;;;5009705;28;20018;-75
2021/04/27 05:25:15;;;;;;;17.52;15.65;;;12.70;99.90;;;;;;5012021;28;20117;-76
2021/04/27 05:27:41;;;;;;;26.27;17.85;;;12.60;99.90;;;;;;5007086;28;20017;-76
2021/04/27 05:30:08;;;;;;;23.63;17.55;;;12.50;99.90;;;;;;5002121;28;20042;-76
2021/04/27 05:32:34;;;;;;;20.85;17.00;;;12.40;99.90;;;;;;5011198;28;20104;-76
2021/04/27 05:34:59;;;;;;;25.00;18.50;;;12.20;99.90;;;;;;5005195;28;20117;-79
2021/04/27 05:37:25;;;;;;;26.23;17.70;;;12.30;99.90;;;;;;5012819;28;20018;-76
2021/04/27 05:39:51;;;;;;;22.77;17.80;;;12.30;99.90;;;;;;5010122;28;20026;-76
2021/04/27 05:42:17;;;;;;;30.88;17.65;;;12.20;99.90;;;;;;5002936;28;20085;-75
2021/04/27 05:44:43;;;;;;;23.80;19.02;;;12.20;99.90;;;;;;5010441;28;20032;-76
2021/04/27 05:47:09;;;;;;;27.48;16.95;;;12.20;99.90;;;;;;5004261;28;20030;-76
2021/04/27 05:49:35;;;;;;;25.08;17.42;;;12.20;99.90;;;;;;5016342;28;20072;-76
2021/04/27 05:52:01;;;;;;;23.27;18.05;;;12.30;99.90;;;;;;5011233;28;20034;-76
2021/04/27 05:54:26;;;;;;;22.83;18.35;;;12.50;99.90;;;;;;5004796;28;20168;-75
2021/04/27 05:56:52;;;;;;;25.42;18.38;;;12.40;99.90;;;;;;5011722;28;20626;-75
2021/04/27 05:59:18;;;;;;;21.63;17.08;;;12.40;99.90;;;;;;5010518;28;20034;-76
2021/04/27 06:01:44;;;;;;;19.52;17.30;;;12.50;99.90;;;;;;5010775;28;20038;-77
2021/04/27 06:04:09;;;;;;;20.52;17.67;;;12.50;99.90;;;;;;5005308;28;20384;-76
2021/04/27 06:06:37;;;;;;;18.05;15.23;;;12.60;99.90;;;;;;5009266;28;20030;-76
2021/04/27 06:09:07;;;;;;;22.17;14.38;;;12.60;99.90;;;;;;4991141;28;20041;-75
2021/04/27 06:11:32;;;;;;;19.92;16.25;;;12.50;99.90;;;;;;4998837;28;20140;-75
2021/04/27 06:13:58;;;;;;;22.88;16.15;;;12.50;99.90;;;;;;5005692;28;20432;-76
2021/04/27 06:16:24;;;;;;;16.67;14.90;;;12.50;99.90;;;;;;5011618;28;20109;-75
2021/04/27 06:18:51;;;;;;;19.02;13.07;;;12.50;99.90;;;;;;5005762;28;20057;-77
2021/04/27 06:21:17;;;;;;;25.48;14.38;;;12.60;99.90;;;;;;4999947;28;20036;-75
2021/04/27 06:23:43;;;;;;;17.75;13.57;;;12.60;99.90;;;;;;4999066;28;20025;-76
2021/04/27 06:26:08;;;;;;;19.35;15.13;;;12.70;99.90;;;;;;4999881;28;20066;-76
2021/04/27 06:28:34;;;;;;;14.63;12.07;;;12.70;99.90;;;;;;4996679;28;20033;-76
2021/04/27 06:31:00;;;;;;;18.73;12.40;;;12.80;99.90;;;;;;4999212;28;20038;-76
2021/04/27 06:33:26;;;;;;;13.45;12.05;;;12.80;99.90;;;;;;4997988;28;20034;-76
2021/04/27 06:35:52;;;;;;;13.55;11.90;;;12.80;99.90;;;;;;4997766;28;20022;-77
2021/04/27 06:38:18;;;;;;;15.30;12.95;;;12.70;99.90;;;;;;4984416;28;20680;-76
2021/04/27 06:40:51;;;;;;;17.58;12.20;;;12.70;99.90;;;;;;5012146;28;20022;-77
2021/04/27 06:43:17;;;;;;;16.50;12.40;;;12.90;99.90;;;;;;5001952;28;20050;-76
2021/04/27 06:45:43;;;;;;;26.42;12.30;;;12.90;99.90;;;;;;5012682;28;20033;-76
2021/04/27 06:48:09;;;;;;;22.25;12.63;;;12.90;99.90;;;;;;5007666;28;20034;-77
2021/04/27 06:50:36;;;;;;;20.30;11.63;;;12.90;99.90;;;;;;5006737;28;20105;-77
2021/04/27 06:53:03;;;;;;;16.65;11.68;;;12.90;99.90;;;;;;5003532;28;20034;-77
2021/04/27 06:55:29;;;;;;;12.93;11.57;;;13.00;99.90;;;;;;5010359;28;20022;-76
2021/04/27 06:58:02;;;;;;;13.13;11.18;;;13.00;99.90;;;;;;5005085;28;20034;-76
2021/04/27 07:00:28;;;;;;;14.95;11.35;;;13.10;99.90;;;;;;5006917;28;20107;-76
2021/04/27 07:02:53;;;;;;;10.70;9.65;;;13.20;99.90;;;;;;5006240;28;20404;-76
2021/04/27 07:05:19;;;;;;;18.95;12.45;;;13.30;99.90;;;;;;5009681;28;20431;-77
2021/04/27 07:07:46;;;;;;;14.48;12.13;;;13.30;99.90;;;;;;5011383;28;20022;-75
2021/04/27 07:10:12;;;;;;;12.75;11.45;;;13.10;99.90;;;;;;5009806;28;20080;-75
2021/04/27 07:12:37;;;;;;;11.70;10.50;;;13.10;99.90;;;;;;5007911;28;20439;-77
2021/04/27 07:15:04;;;;;;;12.50;11.18;;;13.20;99.90;;;;;;4988467;28;20037;-76
2021/04/27 07:17:29;;;;;;;11.23;9.80;;;13.20;99.90;;;;;;5007032;28;20185;-76
2021/04/27 07:19:57;;;;;;;13.20;10.52;;;13.30;99.90;;;;;;4990686;28;20122;-75
2021/04/27 07:22:24;;;;;;;12.20;10.95;;;13.20;99.90;;;;;;4990624;28;20018;-77
2021/04/27 07:24:50;;;;;;;17.63;11.23;;;13.10;99.90;;;;;;5010246;28;20065;-76
2021/04/27 07:27:16;;;;;;;12.55;11.20;;;13.00;99.90;;;;;;4989868;28;20802;-76
2021/04/27 07:29:41;;;;;;;10.77;9.77;;;13.00;99.90;;;;;;4999171;28;20054;-76
2021/04/27 07:32:10;;;;;;;13.43;10.63;;;13.00;99.90;;;;;;5010176;28;20084;-77
2021/04/27 07:34:36;;;;;;;12.15;10.95;;;13.00;99.90;;;;;;5007920;28;20427;-76
2021/04/27 07:37:02;;;;;;;15.38;11.18;;;13.10;99.90;;;;;;5010223;28;20128;-76
2021/04/27 07:39:27;;;;;;;12.30;10.57;;;13.00;99.90;;;;;;5008643;28;20515;-75
2021/04/27 07:41:53;;;;;;;12.48;10.70;;;13.10;99.90;;;;;;5003078;28;20037;-77
2021/04/27 07:44:19;;;;;;;12.00;9.93;;;13.10;99.90;;;;;;5009452;28;20026;-76
2021/04/27 07:46:45;;;;;;;10.38;9.20;;;13.10;99.90;;;;;;5007094;28;20053;-76
2021/04/27 07:49:10;;;;;;;13.30;9.63;;;13.10;99.90;;;;;;5010741;28;20453;-76
2021/04/27 07:51:36;;;;;;;14.02;10.38;;;13.10;99.90;;;;;;4989749;28;20022;-70
2021/04/27 07:54:03;;;;;;;15.32;9.32;;;13.20;99.90;;;;;;5002200;28;20035;-70
2021/04/27 07:56:30;;;;;;;9.80;8.07;;;13.20;99.90;;;;;;5010107;28;20018;-70
2021/04/27 07:58:58;;;;;;;16.20;8.88;;;13.20;99.90;;;;;;5003342;28;20018;-70
2021/04/27 08:01:24;;;;;;;10.45;8.25;;;13.10;99.90;;;;;;5003411;28;20026;-70
2021/04/27 08:03:50;;;;;;;16.50;9.15;;;13.20;99.90;;;;;;5005727;28;20106;-70
2021/04/27 08:06:15;;;;;;;8.70;7.90;;;13.30;99.90;;;;;;5005409;28;20069;-71
2021/04/27 08:08:41;;;;;;;10.10;8.48;;;13.30;99.90;;;;;;5007319;28;20033;-71
2021/04/27 08:11:07;;;;;;;9.70;7.70;;;13.50;99.90;;;;;;4995800;28;20022;-70
2021/04/27 08:13:33;;;;;;;9.95;8.38;;;13.50;99.90;;;;;;5013035;28;20484;-73
2021/04/27 08:15:58;;;;;;;8.63;7.72;;;13.50;99.90;;;;;;5012863;28;20061;-71
2021/04/27 08:18:24;;;;;;;11.48;7.68;;;13.60;99.90;;;;;;5005146;28;20193;-70
2021/04/27 08:20:50;;;;;;;11.75;7.97;;;13.70;99.90;;;;;;5009895;28;20030;-71
2021/04/27 08:23:16;;;;;;;10.70;6.88;;;13.80;99.90;;;;;;5011907;28;20030;-70
2021/04/27 08:25:42;;;;;;;9.43;8.27;;;13.90;99.90;;;;;;5012268;28;20048;-70
2021/04/27 08:28:08;;;;;;;11.40;7.82;;;14.00;99.90;;;;;;5011498;28;20018;-70
2021/04/27 08:30:34;;;;;;;10.50;8.13;;;14.00;99.90;;;;;;5008135;28;20113;-70
2021/04/27 08:33:00;;;;;;;7.70;6.35;;;13.90;99.90;;;;;;5011831;28;20053;-69
2021/04/27 08:35:26;;;;;;;8.00;7.20;;;13.70;99.90;;;;;;5007765;28;20044;-64
2021/04/27 08:37:52;;;;;;;9.60;7.22;;;13.70;99.90;;;;;;5002703;28;20041;-65
2021/04/27 08:40:19;;;;;;;10.05;7.57;;;13.80;99.90;;;;;;5013645;28;20061;-64
2021/04/27 08:42:49;;;;;;;8.23;7.43;;;14.00;99.90;;;;;;5006374;28;20029;-65
2021/04/27 08:45:16;;;;;;;9.63;7.03;;;14.00;99.90;;;;;;5008530;28;20025;-64
2021/04/27 08:47:42;;;;;;;7.97;7.18;;;14.10;99.90;;;;;;5010739;28;20021;-66
2021/04/27 08:50:11;;;;;;;8.68;7.60;;;14.20;99.90;;;;;;5005059;28;20029;-65
2021/04/27 08:52:37;;;;;;;10.55;7.70;;;14.20;99.90;;;;;;5011039;28;20026;-65
2021/04/27 08:55:04;;;;;;;7.57;6.28;;;14.30;99.90;;;;;;5006323;28;20037;-64
2021/04/27 08:57:30;;;;;;;7.38;5.60;;;14.20;99.90;;;;;;5011243;28;20053;-64
2021/04/27 08:59:55;;;;;;;8.35;7.53;;;14.20;99.90;;;;;;5014199;28;20298;-64
2021/04/27 09:02:29;;;;;;;7.65;7.00;;;14.20;99.90;;;;;;5008120;28;20105;-66
2021/04/27 09:04:55;;;;;;;8.02;7.20;;;14.10;99.90;;;;;;5014865;28;20080;-66
2021/04/27 09:07:23;;;;;;;6.82;5.72;;;14.40;99.90;;;;;;5008838;28;20439;-66
2021/04/27 09:09:54;;;;;;;7.45;6.70;;;14.40;99.90;;;;;;5008605;28;20086;-67
2021/04/27 09:12:25;;;;;;;7.95;7.18;;;14.40;99.90;;;;;;5000565;28;20022;-66
2021/04/27 09:14:51;;;;;;;7.78;7.13;;;14.40;99.90;;;;;;5009384;28;20851;-67
2021/04/27 09:17:17;;;;;;;8.65;7.85;;;14.40;99.90;;;;;;5011186;28;20095;-67
2021/04/27 09:19:52;;;;;;;10.30;9.27;;;14.80;99.90;;;;;;4999400;28;20472;-67
2021/04/27 09:22:20;;;;;;;8.50;7.07;;;14.60;99.90;;;;;;4997485;28;20061;-66
2021/04/27 09:24:51;;;;;;;6.28;5.68;;;14.60;99.90;;;;;;4980273;28;20380;-71
2021/04/27 09:27:36;;;;;;;7.43;5.80;;;14.50;99.90;;;;;;4996985;28;20072;-73
2021/04/27 09:30:13;;;;;;;7.57;6.65;;;14.40;99.90;;;;;;4995052;28;20113;-72
2021/04/27 09:32:44;;;;;;;8.10;6.60;;;14.50;99.90;;;;;;5004822;28;20018;-72
2021/04/27 09:35:26;;;;;;;8.15;6.72;;;14.30;99.90;;;;;;5004724;28;20512;-73
2021/04/27 09:38:10;;;;;;;;;;;14.30;99.90;;;;;;5012678;28;20030;-74
2021/04/27 09:40:54;;;;;;;11.23;7.68;;;14.30;99.90;;;;;;4988726;28;19909;-72
2021/04/27 09:43:32;;;;;;;6.63;5.65;;;14.30;99.90;;;;;;5012120;28;20074;-71
2021/04/27 09:46:01;;;;;;;7.65;6.88;;;14.50;99.90;;;;;;4995124;28;20026;-71
2021/04/27 09:48:32;;;;;;;11.02;5.63;;;14.60;99.90;;;;;;5008442;28;20034;-70
2021/04/27 09:51:13;;;;;;;7.50;6.30;;;14.80;99.90;;;;;;5004461;28;20034;-69
2021/04/27 09:53:51;;;;;;;7.53;6.63;;;14.80;99.90;;;;;;4999903;28;20033;-69
2021/04/27 09:56:43;;;;;;;7.60;6.28;;;15.00;99.90;;;;;;4993244;28;20022;-70
2021/04/27 09:59:15;;;;;;;6.30;5.00;;;15.20;99.90;;;;;;5010575;28;20101;-71
2021/04/27 10:01:46;;;;;;;5.43;4.75;;;15.10;99.90;;;;;;5006260;28;20073;-70
2021/04/27 10:04:11;;;;;;;6.10;5.03;;;15.10;99.90;;;;;;5007468;28;20064;-69
2021/04/27 10:06:41;;;;;;;5.10;4.32;;;15.30;99.90;;;;;;5008541;28;20079;-69
2021/04/27 10:09:07;;;;;;;4.68;3.72;;;15.50;99.90;;;;;;5004504;28;20431;-69
2021/04/27 10:11:34;;;;;;;4.57;4.18;;;15.50;99.90;;;;;;5010831;28;20080;-70
2021/04/27 10:14:02;;;;;;;10.02;4.47;;;15.50;99.90;;;;;;4993764;28;20031;-71
2021/04/27 10:16:28;;;;;;;4.20;3.80;;;15.80;99.90;;;;;;5008299;28;20022;-69
2021/04/27 10:18:54;;;;;;;8.32;4.43;;;15.80;99.90;;;;;;5003255;28;20042;-69
2021/04/27 10:21:20;;;;;;;3.67;3.25;;;15.70;99.90;;;;;;5011093;28;20024;-69
2021/04/27 10:24:00;;;;;;;4.85;3.88;;;15.70;99.90;;;;;;5010567;28;20030;-69
2021/04/27 10:26:28;;;;;;;4.03;3.63;;;15.80;99.90;;;;;;4993421;28;20592;-70
2021/04/27 10:29:00;;;;;;;4.07;3.65;;;15.60;99.90;;;;;;4975322;28;20030;-71
2021/04/27 10:31:27;;;;;;;3.70;3.40;;;15.50;99.90;;;;;;4976698;28;20034;-68
2021/04/27 10:33:59;;;;;;;4.00;3.70;;;15.30;99.90;;;;;;4998043;28;20025;-69
2021/04/27 10:36:26;;;;;;;3.05;2.85;;;15.30;99.90;;;;;;5010912;28;20338;-70
2021/04/27 10:38:59;;;;;;;4.28;3.35;;;15.20;99.90;;;;;;5012627;28;20018;-68
2021/04/27 10:41:53;;;;;;;4.13;2.72;;;15.20;99.90;;;;;;5011032;28;20037;-71
2021/04/27 10:44:20;;;;;;;4.18;3.35;;;15.40;99.90;;;;;;5001820;28;20235;-69
2021/04/27 10:46:53;;;;;;;5.40;2.97;;;15.40;99.90;;;;;;5008440;28;20025;-71
2021/04/27 10:49:35;;;;;;;3.10;2.83;;;15.50;99.90;;;;;;5010970;28;20504;-71
2021/04/27 10:52:03;;;;;;;5.10;3.63;;;15.50;99.90;;;;;;4996199;28;20157;-71
2021/04/27 10:54:35;;;;;;;3.33;3.08;;;15.70;99.90;;;;;;5009090;28;20388;-71
2021/04/27 10:57:04;;;;;;;3.45;2.70;;;15.90;99.90;;;;;;5011602;28;20021;-72
2021/04/27 10:59:49;;;;;;;3.20;2.47;;;16.10;99.90;;;;;;5011024;28;20079;-71
2021/04/27 11:02:17;;;;;;;3.28;2.90;;;15.90;99.90;;;;;;5010567;28;20101;-71
2021/04/27 11:04:45;;;;;;;2.92;2.63;;;15.60;99.90;;;;;;5010227;28;20022;-71
2021/04/27 11:07:32;;;;;;;2.70;2.50;;;15.40;99.90;;;;;;5010520;28;20037;-70
2021/04/27 11:09:57;;;;;;;3.75;2.90;;;15.40;99.90;;;;;;5010309;28;20041;-71
2021/04/27 11:12:30;;;;;;;4.70;2.85;;;15.40;99.90;;;;;;4994789;28;20031;-73
2021/04/27 11:15:01;;;;;;;2.83;2.53;;;15.40;99.90;;;;;;4994759;28;20030;-71
2021/04/27 11:17:37;;;;;;;5.75;3.17;;;15.30;99.90;;;;;;4974170;28;20043;-74
2021/04/27 11:20:10;;;;;;;3.55;3.25;;;15.50;99.90;;;;;;5004249;28;20536;-75
2021/04/27 11:22:51;;;;;;;4.00;2.97;;;15.50;99.90;;;;;;4991571;28;20029;-74
2021/04/27 11:25:37;;;;;;;3.85;3.55;;;15.20;99.90;;;;;;4976347;28;20396;-74
2021/04/27 11:28:03;;;;;;;3.28;2.92;;;15.00;99.90;;;;;;4991645;28;20129;-73
2021/04/27 11:30:34;;;;;;;3.63;3.33;;;15.10;99.90;;;;;;5005804;28;20030;-75
2021/04/27 11:33:05;;;;;;;3.13;2.83;;;15.00;99.90;;;;;;4992467;28;20361;-74
2021/04/27 11:35:41;;;;;;;4.55;4.20;;;15.00;99.90;;;;;;4991882;28;20033;-73
2021/04/27 11:38:08;;;;;;;5.20;3.53;;;15.20;99.90;;;;;;4992280;28;20026;-74
2021/04/27 11:40:38;;;;;;;4.55;2.90;;;15.00;99.90;;;;;;4995246;28;20720;-74
2021/04/27 11:43:14;;;;;;;3.60;3.25;;;15.00;99.90;;;;;;5014428;28;20384;-73
2021/04/27 11:45:46;;;;;;;3.47;2.63;;;14.70;99.90;;;;;;5014471;28;20092;-72
2021/04/27 11:48:16;;;;;;;6.07;2.50;;;14.60;99.90;;;;;;5014638;28;20036;-74
2021/04/27 11:50:43;;;;;;;6.03;2.97;;;14.60;99.90;;;;;;5012172;28;20026;-73
2021/04/27 11:53:10;;;;;;;3.03;2.83;;;14.60;99.90;;;;;;4994356;28;20018;-74
2021/04/27 11:55:39;;;;;;;3.88;3.40;;;14.60;99.90;;;;;;4994508;28;20506;-74
2021/04/27 11:58:07;;;;;;;3.42;3.13;;;14.70;99.90;;;;;;4994632;28;20436;-73
2021/04/27 12:00:37;;;;;;;3.83;3.28;;;14.70;99.90;;;;;;4994354;28;20029;-74
2021/04/27 12:03:23;;;;;;;4.22;3.80;;;14.70;99.90;;;;;;4994769;28;20049;-73
2021/04/27 12:06:05;;;;;;;4.75;3.17;;;14.80;99.90;;;;;;4976988;28;20035;-72
2021/04/27 12:08:33;;;;;;;5.70;2.88;;;14.70;99.90;;;;;;4994672;28;20030;-73
2021/04/27 12:11:17;;;;;;;2.58;2.38;;;14.50;99.90;;;;;;4994767;28;20101;-74
2021/04/27 12:13:51;;;;;;;3.58;3.20;;;14.50;99.90;;;;;;4995115;28;20104;-75
2021/04/27 12:16:17;;;;;;;2.90;2.30;;;14.50;99.90;;;;;;4993700;28;20105;-74
2021/04/27 12:18:47;;;;;;;3.30;3.00;;;14.60;99.90;;;;;;4994428;28;20524;-73
2021/04/27 12:21:33;;;;;;;3.55;3.08;;;14.60;99.90;;;;;;4993711;28;20014;-74
2021/04/27 12:24:14;;;;;;;3.75;2.50;;;14.60;99.90;;;;;;4997442;28;20038;-76
2021/04/27 12:27:09;;;;;;;2.65;2.42;;;14.70;99.90;;;;;;5013943;28;20543;-74
2021/04/27 12:29:41;;;;;;;2.97;2.50;;;14.70;99.90;;;;;;5003922;28;20420;-73
2021/04/27 12:32:11;;;;;;;;;;;14.80;99.90;;;;;;5007614;28;20029;-73
2021/04/27 12:35:11;;;;;;;5.72;2.80;;;14.80;99.90;;;;;;5010462;28;20007;-72
2021/04/27 12:37:45;;;;;;;2.88;2.67;;;14.80;99.90;;;;;;5007066;28;20049;-74
2021/04/27 12:40:13;;;;;;;2.83;2.63;;;15.00;99.90;;;;;;5012946;28;20025;-73
2021/04/27 12:42:45;;;;;;;3.05;2.83;;;14.90;99.90;;;;;;4990236;28;20156;-74